sensor_id;sensor_type;location;lat;lon;timestamp;P1;durP1;ratioP1;P2;durP2;ratioP2
78774;SDS011;68119;43.398;3.676;2023-12-29T00:01:08;18.20;;;13.60;;
78774;SDS011;68119;43.398;3.676;2023-12-29T00:03:45;21.23;;;13.30;;
78774;SDS011;68119;43.398;3.676;2023-12-29T00:06:12;18.45;;;13.00;;
78774;SDS011;68119;43.398;3.676;2023-12-29T00:08:41;18.50;;;13.43;;
78774;SDS011;68119;43.398;3.676;2023-12-29T00:11:19;21.65;;;13.73;;
78774;SDS011;68119;43.398;3.676;2023-12-29T00:13:46;17.55;;;13.85;;
78774;SDS011;68119;43.398;3.676;2023-12-29T00:16:12;18.50;;;12.50;;
78774;SDS011;68119;43.398;3.676;2023-12-29T00:18:38;16.65;;;13.05;;
78774;SDS011;68119;43.398;3.676;2023-12-29T00:24:01;17.83;;;12.65;;
78774;SDS011;68119;43.398;3.676;2023-12-29T00:26:27;21.13;;;13.80;;
78774;SDS011;68119;43.398;3.676;2023-12-29T00:28:56;19.35;;;13.93;;
78774;SDS011;68119;43.398;3.676;2023-12-29T00:31:25;19.40;;;13.57;;
78774;SDS011;68119;43.398;3.676;2023-12-29T00:33:52;17.02;;;12.38;;
78774;SDS011;68119;43.398;3.676;2023-12-29T00:36:19;15.80;;;12.80;;
78774;SDS011;68119;43.398;3.676;2023-12-29T00:38:50;21.35;;;13.77;;
78774;SDS011;68119;43.398;3.676;2023-12-29T00:41:17;18.67;;;13.25;;
78774;SDS011;68119;43.398;3.676;2023-12-29T00:43:52;16.85;;;12.68;;
78774;SDS011;68119;43.398;3.676;2023-12-29T00:46:18;17.77;;;13.05;;
78774;SDS011;68119;43.398;3.676;2023-12-29T00:48:46;15.88;;;12.55;;
78774;SDS011;68119;43.398;3.676;2023-12-29T00:51:12;17.58;;;13.00;;
78774;SDS011;68119;43.398;3.676;2023-12-29T00:53:41;16.77;;;12.45;;
78774;SDS011;68119;43.398;3.676;2023-12-29T00:56:13;19.42;;;12.77;;
78774;SDS011;68119;43.398;3.676;2023-12-29T00:58:39;17.73;;;12.95;;
78774;SDS011;68119;43.398;3.676;2023-12-29T01:01:08;17.83;;;12.57;;
78774;SDS011;68119;43.398;3.676;2023-12-29T01:03:47;20.77;;;12.98;;
78774;SDS011;68119;43.398;3.676;2023-12-29T01:06:17;18.48;;;12.25;;
78774;SDS011;68119;43.398;3.676;2023-12-29T01:08:51;18.58;;;13.07;;
78774;SDS011;68119;43.398;3.676;2023-12-29T01:11:20;20.05;;;13.25;;
78774;SDS011;68119;43.398;3.676;2023-12-29T01:13:46;17.13;;;13.85;;
78774;SDS011;68119;43.398;3.676;2023-12-29T01:16:27;24.25;;;13.98;;
78774;SDS011;68119;43.398;3.676;2023-12-29T01:18:58;19.65;;;13.50;;
78774;SDS011;68119;43.398;3.676;2023-12-29T01:21:25;20.15;;;14.27;;
78774;SDS011;68119;43.398;3.676;2023-12-29T01:24:00;22.13;;;13.15;;
78774;SDS011;68119;43.398;3.676;2023-12-29T01:26:31;20.48;;;14.10;;
78774;SDS011;68119;43.398;3.676;2023-12-29T01:29:02;20.00;;;14.23;;
78774;SDS011;68119;43.398;3.676;2023-12-29T01:31:32;18.88;;;14.80;;
78774;SDS011;68119;43.398;3.676;2023-12-29T01:33:59;20.25;;;15.00;;
78774;SDS011;68119;43.398;3.676;2023-12-29T01:36:25;18.27;;;14.52;;
78774;SDS011;68119;43.398;3.676;2023-12-29T01:38:54;19.85;;;15.27;;
78774;SDS011;68119;43.398;3.676;2023-12-29T01:41:27;20.58;;;15.07;;
78774;SDS011;68119;43.398;3.676;2023-12-29T01:46:26;22.70;;;15.88;;
78774;SDS011;68119;43.398;3.676;2023-12-29T01:48:53;20.98;;;16.00;;
78774;SDS011;68119;43.398;3.676;2023-12-29T01:51:21;24.38;;;16.88;;
78774;SDS011;68119;43.398;3.676;2023-12-29T01:53:55;22.58;;;16.58;;
78774;SDS011;68119;43.398;3.676;2023-12-29T01:56:23;23.88;;;17.08;;
78774;SDS011;68119;43.398;3.676;2023-12-29T01:58:52;23.73;;;17.20;;
78774;SDS011;68119;43.398;3.676;2023-12-29T02:01:19;23.88;;;17.00;;
78774;SDS011;68119;43.398;3.676;2023-12-29T02:06:51;25.15;;;17.48;;
78774;SDS011;68119;43.398;3.676;2023-12-29T02:09:20;22.77;;;16.80;;
78774;SDS011;68119;43.398;3.676;2023-12-29T02:11:49;23.88;;;17.67;;
78774;SDS011;68119;43.398;3.676;2023-12-29T02:14:22;22.20;;;16.70;;
78774;SDS011;68119;43.398;3.676;2023-12-29T02:17:06;22.73;;;18.15;;
78774;SDS011;68119;43.398;3.676;2023-12-29T02:19:47;24.10;;;17.50;;
78774;SDS011;68119;43.398;3.676;2023-12-29T02:22:17;24.67;;;18.25;;
78774;SDS011;68119;43.398;3.676;2023-12-29T02:24:54;26.67;;;17.95;;
78774;SDS011;68119;43.398;3.676;2023-12-29T02:27:22;24.83;;;17.45;;
78774;SDS011;68119;43.398;3.676;2023-12-29T02:32:39;25.00;;;18.85;;
78774;SDS011;68119;43.398;3.676;2023-12-29T02:35:12;23.38;;;17.92;;
78774;SDS011;68119;43.398;3.676;2023-12-29T02:37:39;23.98;;;17.40;;
78774;SDS011;68119;43.398;3.676;2023-12-29T02:40:08;29.20;;;18.35;;
78774;SDS011;68119;43.398;3.676;2023-12-29T02:42:38;23.70;;;18.13;;
78774;SDS011;68119;43.398;3.676;2023-12-29T02:45:08;26.00;;;18.00;;
78774;SDS011;68119;43.398;3.676;2023-12-29T02:47:35;26.38;;;18.08;;
78774;SDS011;68119;43.398;3.676;2023-12-29T02:50:01;23.75;;;17.42;;
78774;SDS011;68119;43.398;3.676;2023-12-29T02:52:30;24.15;;;17.70;;
78774;SDS011;68119;43.398;3.676;2023-12-29T02:54:59;23.10;;;16.58;;
78774;SDS011;68119;43.398;3.676;2023-12-29T02:57:26;22.80;;;16.92;;
78774;SDS011;68119;43.398;3.676;2023-12-29T02:59:52;24.67;;;17.35;;
78774;SDS011;68119;43.398;3.676;2023-12-29T03:02:23;24.02;;;17.60;;
78774;SDS011;68119;43.398;3.676;2023-12-29T03:04:50;23.65;;;17.02;;
78774;SDS011;68119;43.398;3.676;2023-12-29T03:07:24;21.65;;;16.08;;
78774;SDS011;68119;43.398;3.676;2023-12-29T03:09:51;21.65;;;15.95;;
78774;SDS011;68119;43.398;3.676;2023-12-29T03:12:17;24.55;;;17.33;;
78774;SDS011;68119;43.398;3.676;2023-12-29T03:14:45;22.83;;;17.15;;
78774;SDS011;68119;43.398;3.676;2023-12-29T03:17:17;23.10;;;16.95;;
78774;SDS011;68119;43.398;3.676;2023-12-29T03:19:43;26.60;;;17.30;;
78774;SDS011;68119;43.398;3.676;2023-12-29T03:22:10;22.85;;;15.70;;
78774;SDS011;68119;43.398;3.676;2023-12-29T03:24:36;22.77;;;17.25;;
78774;SDS011;68119;43.398;3.676;2023-12-29T03:27:06;24.20;;;17.23;;
78774;SDS011;68119;43.398;3.676;2023-12-29T03:29:32;23.13;;;17.30;;
78774;SDS011;68119;43.398;3.676;2023-12-29T03:31:58;26.20;;;18.10;;
78774;SDS011;68119;43.398;3.676;2023-12-29T03:34:29;23.40;;;17.77;;
78774;SDS011;68119;43.398;3.676;2023-12-29T03:36:58;24.77;;;17.40;;
78774;SDS011;68119;43.398;3.676;2023-12-29T03:39:26;24.75;;;18.05;;
78774;SDS011;68119;43.398;3.676;2023-12-29T03:41:53;27.33;;;18.17;;
78774;SDS011;68119;43.398;3.676;2023-12-29T03:44:21;25.27;;;17.27;;
78774;SDS011;68119;43.398;3.676;2023-12-29T03:46:47;22.30;;;17.30;;
78774;SDS011;68119;43.398;3.676;2023-12-29T03:49:14;24.33;;;17.17;;
78774;SDS011;68119;43.398;3.676;2023-12-29T03:51:43;21.55;;;16.63;;
78774;SDS011;68119;43.398;3.676;2023-12-29T03:54:09;22.88;;;15.77;;
78774;SDS011;68119;43.398;3.676;2023-12-29T03:56:36;24.52;;;16.88;;
78774;SDS011;68119;43.398;3.676;2023-12-29T03:59:02;24.30;;;17.33;;
78774;SDS011;68119;43.398;3.676;2023-12-29T04:01:28;23.75;;;16.15;;
78774;SDS011;68119;43.398;3.676;2023-12-29T04:03:54;23.20;;;16.23;;
78774;SDS011;68119;43.398;3.676;2023-12-29T04:06:23;24.35;;;16.63;;
78774;SDS011;68119;43.398;3.676;2023-12-29T04:08:52;23.10;;;16.45;;
78774;SDS011;68119;43.398;3.676;2023-12-29T04:11:40;24.38;;;17.05;;
78774;SDS011;68119;43.398;3.676;2023-12-29T04:14:08;23.38;;;17.00;;
78774;SDS011;68119;43.398;3.676;2023-12-29T04:16:38;23.00;;;16.60;;
78774;SDS011;68119;43.398;3.676;2023-12-29T04:19:04;24.25;;;16.90;;
78774;SDS011;68119;43.398;3.676;2023-12-29T04:21:34;21.10;;;16.48;;
78774;SDS011;68119;43.398;3.676;2023-12-29T04:24:00;24.02;;;17.17;;
78774;SDS011;68119;43.398;3.676;2023-12-29T04:26:26;21.73;;;16.83;;
78774;SDS011;68119;43.398;3.676;2023-12-29T04:28:55;25.17;;;16.17;;
78774;SDS011;68119;43.398;3.676;2023-12-29T04:31:24;24.10;;;16.58;;
78774;SDS011;68119;43.398;3.676;2023-12-29T04:33:56;22.20;;;16.98;;
78774;SDS011;68119;43.398;3.676;2023-12-29T04:36:22;23.02;;;17.15;;
78774;SDS011;68119;43.398;3.676;2023-12-29T04:38:51;25.02;;;16.70;;
78774;SDS011;68119;43.398;3.676;2023-12-29T04:41:19;25.40;;;16.17;;
78774;SDS011;68119;43.398;3.676;2023-12-29T04:43:45;23.17;;;16.77;;
78774;SDS011;68119;43.398;3.676;2023-12-29T04:46:14;24.02;;;16.38;;
78774;SDS011;68119;43.398;3.676;2023-12-29T04:48:42;24.70;;;16.27;;
78774;SDS011;68119;43.398;3.676;2023-12-29T04:51:12;24.50;;;17.27;;
78774;SDS011;68119;43.398;3.676;2023-12-29T04:53:45;22.52;;;16.58;;
78774;SDS011;68119;43.398;3.676;2023-12-29T04:56:11;20.63;;;15.95;;
78774;SDS011;68119;43.398;3.676;2023-12-29T04:58:37;24.17;;;16.35;;
78774;SDS011;68119;43.398;3.676;2023-12-29T05:01:06;23.08;;;16.45;;
78774;SDS011;68119;43.398;3.676;2023-12-29T05:03:33;23.75;;;16.02;;
78774;SDS011;68119;43.398;3.676;2023-12-29T05:06:02;21.75;;;16.65;;
78774;SDS011;68119;43.398;3.676;2023-12-29T05:08:28;23.00;;;16.70;;
78774;SDS011;68119;43.398;3.676;2023-12-29T05:10:55;23.65;;;16.63;;
78774;SDS011;68119;43.398;3.676;2023-12-29T05:13:21;20.80;;;16.30;;
78774;SDS011;68119;43.398;3.676;2023-12-29T05:15:57;22.48;;;17.00;;
78774;SDS011;68119;43.398;3.676;2023-12-29T05:18:28;23.98;;;16.45;;
78774;SDS011;68119;43.398;3.676;2023-12-29T05:20:57;25.00;;;16.88;;
78774;SDS011;68119;43.398;3.676;2023-12-29T05:23:23;22.15;;;16.55;;
78774;SDS011;68119;43.398;3.676;2023-12-29T05:25:50;22.35;;;16.98;;
78774;SDS011;68119;43.398;3.676;2023-12-29T05:28:16;22.63;;;15.50;;
78774;SDS011;68119;43.398;3.676;2023-12-29T05:30:43;21.58;;;16.33;;
78774;SDS011;68119;43.398;3.676;2023-12-29T05:33:09;21.55;;;15.80;;
78774;SDS011;68119;43.398;3.676;2023-12-29T05:35:35;19.42;;;15.52;;
78774;SDS011;68119;43.398;3.676;2023-12-29T05:38:08;18.77;;;15.57;;
78774;SDS011;68119;43.398;3.676;2023-12-29T05:40:34;22.38;;;17.13;;
78774;SDS011;68119;43.398;3.676;2023-12-29T05:43:03;22.38;;;16.52;;
78774;SDS011;68119;43.398;3.676;2023-12-29T05:45:29;23.75;;;16.30;;
78774;SDS011;68119;43.398;3.676;2023-12-29T05:47:58;23.08;;;15.60;;
78774;SDS011;68119;43.398;3.676;2023-12-29T05:50:24;20.67;;;15.77;;
78774;SDS011;68119;43.398;3.676;2023-12-29T05:52:51;21.10;;;15.77;;
78774;SDS011;68119;43.398;3.676;2023-12-29T05:55:17;21.08;;;15.73;;
78774;SDS011;68119;43.398;3.676;2023-12-29T05:57:44;20.83;;;15.98;;
78774;SDS011;68119;43.398;3.676;2023-12-29T06:00:13;23.10;;;16.80;;
78774;SDS011;68119;43.398;3.676;2023-12-29T06:02:43;21.85;;;15.25;;
78774;SDS011;68119;43.398;3.676;2023-12-29T06:05:12;22.08;;;16.65;;
78774;SDS011;68119;43.398;3.676;2023-12-29T06:07:39;22.35;;;17.48;;
78774;SDS011;68119;43.398;3.676;2023-12-29T06:10:07;22.75;;;17.27;;
78774;SDS011;68119;43.398;3.676;2023-12-29T06:12:34;22.05;;;17.80;;
78774;SDS011;68119;43.398;3.676;2023-12-29T06:15:00;23.10;;;17.25;;
78774;SDS011;68119;43.398;3.676;2023-12-29T06:17:29;23.67;;;17.42;;
78774;SDS011;68119;43.398;3.676;2023-12-29T06:19:55;24.17;;;18.13;;
78774;SDS011;68119;43.398;3.676;2023-12-29T06:22:21;24.48;;;18.02;;
78774;SDS011;68119;43.398;3.676;2023-12-29T06:24:48;21.50;;;16.80;;
78774;SDS011;68119;43.398;3.676;2023-12-29T06:27:17;28.88;;;16.90;;
78774;SDS011;68119;43.398;3.676;2023-12-29T06:29:43;22.17;;;16.70;;
78774;SDS011;68119;43.398;3.676;2023-12-29T06:32:09;24.83;;;17.52;;
78774;SDS011;68119;43.398;3.676;2023-12-29T06:34:35;26.20;;;17.13;;
78774;SDS011;68119;43.398;3.676;2023-12-29T06:37:04;20.63;;;16.42;;
78774;SDS011;68119;43.398;3.676;2023-12-29T06:39:30;23.38;;;17.25;;
78774;SDS011;68119;43.398;3.676;2023-12-29T06:41:57;22.13;;;16.75;;
78774;SDS011;68119;43.398;3.676;2023-12-29T06:44:23;24.05;;;16.92;;
78774;SDS011;68119;43.398;3.676;2023-12-29T06:46:49;20.60;;;16.38;;
78774;SDS011;68119;43.398;3.676;2023-12-29T06:49:15;21.75;;;16.95;;
78774;SDS011;68119;43.398;3.676;2023-12-29T06:51:41;21.60;;;16.38;;
78774;SDS011;68119;43.398;3.676;2023-12-29T06:54:08;22.83;;;16.52;;
78774;SDS011;68119;43.398;3.676;2023-12-29T06:56:34;25.23;;;16.15;;
78774;SDS011;68119;43.398;3.676;2023-12-29T06:59:03;23.52;;;16.42;;
78774;SDS011;68119;43.398;3.676;2023-12-29T07:01:29;22.17;;;16.02;;
78774;SDS011;68119;43.398;3.676;2023-12-29T07:03:57;23.38;;;17.48;;
78774;SDS011;68119;43.398;3.676;2023-12-29T07:06:26;22.48;;;16.25;;
78774;SDS011;68119;43.398;3.676;2023-12-29T07:08:52;25.77;;;18.15;;
78774;SDS011;68119;43.398;3.676;2023-12-29T07:11:21;23.92;;;18.10;;
78774;SDS011;68119;43.398;3.676;2023-12-29T07:13:48;25.83;;;17.98;;
78774;SDS011;68119;43.398;3.676;2023-12-29T07:16:14;25.25;;;17.75;;
78774;SDS011;68119;43.398;3.676;2023-12-29T07:18:40;25.52;;;18.17;;
78774;SDS011;68119;43.398;3.676;2023-12-29T07:21:07;25.15;;;18.33;;
78774;SDS011;68119;43.398;3.676;2023-12-29T07:23:33;24.88;;;18.70;;
78774;SDS011;68119;43.398;3.676;2023-12-29T07:26:02;25.67;;;17.85;;
78774;SDS011;68119;43.398;3.676;2023-12-29T07:28:28;24.38;;;17.48;;
78774;SDS011;68119;43.398;3.676;2023-12-29T07:30:57;23.77;;;19.13;;
78774;SDS011;68119;43.398;3.676;2023-12-29T07:33:23;23.40;;;17.42;;
78774;SDS011;68119;43.398;3.676;2023-12-29T07:35:52;21.33;;;16.90;;
78774;SDS011;68119;43.398;3.676;2023-12-29T07:38:20;24.30;;;16.90;;
78774;SDS011;68119;43.398;3.676;2023-12-29T07:40:46;21.50;;;16.48;;
78774;SDS011;68119;43.398;3.676;2023-12-29T07:43:13;27.98;;;17.42;;
78774;SDS011;68119;43.398;3.676;2023-12-29T07:45:40;30.35;;;16.92;;
78774;SDS011;68119;43.398;3.676;2023-12-29T07:48:08;21.83;;;15.52;;
78774;SDS011;68119;43.398;3.676;2023-12-29T07:50:37;22.70;;;15.55;;
78774;SDS011;68119;43.398;3.676;2023-12-29T07:53:08;23.45;;;15.73;;
78774;SDS011;68119;43.398;3.676;2023-12-29T07:55:37;22.80;;;15.63;;
78774;SDS011;68119;43.398;3.676;2023-12-29T07:58:08;22.35;;;15.70;;
78774;SDS011;68119;43.398;3.676;2023-12-29T08:00:43;23.55;;;15.93;;
78774;SDS011;68119;43.398;3.676;2023-12-29T08:03:09;23.90;;;15.40;;
78774;SDS011;68119;43.398;3.676;2023-12-29T08:05:44;20.92;;;14.73;;
78774;SDS011;68119;43.398;3.676;2023-12-29T08:08:20;19.75;;;15.27;;
78774;SDS011;68119;43.398;3.676;2023-12-29T08:17:07;19.27;;;13.95;;
78774;SDS011;68119;43.398;3.676;2023-12-29T08:19:49;21.05;;;13.98;;
78774;SDS011;68119;43.398;3.676;2023-12-29T08:22:15;21.90;;;14.35;;
78774;SDS011;68119;43.398;3.676;2023-12-29T08:24:41;19.80;;;14.20;;
78774;SDS011;68119;43.398;3.676;2023-12-29T08:27:52;20.85;;;14.07;;
78774;SDS011;68119;43.398;3.676;2023-12-29T08:30:45;20.25;;;13.98;;
78774;SDS011;68119;43.398;3.676;2023-12-29T08:33:31;18.50;;;13.45;;
78774;SDS011;68119;43.398;3.676;2023-12-29T08:35:57;19.30;;;12.88;;
78774;SDS011;68119;43.398;3.676;2023-12-29T08:38:26;18.52;;;12.98;;
78774;SDS011;68119;43.398;3.676;2023-12-29T08:40:52;15.88;;;12.07;;
78774;SDS011;68119;43.398;3.676;2023-12-29T08:43:21;20.42;;;13.35;;
78774;SDS011;68119;43.398;3.676;2023-12-29T08:45:47;17.75;;;12.68;;
78774;SDS011;68119;43.398;3.676;2023-12-29T08:48:14;19.02;;;13.55;;
78774;SDS011;68119;43.398;3.676;2023-12-29T08:50:43;17.58;;;12.32;;
78774;SDS011;68119;43.398;3.676;2023-12-29T08:53:14;16.67;;;12.07;;
78774;SDS011;68119;43.398;3.676;2023-12-29T08:55:43;18.45;;;13.18;;
78774;SDS011;68119;43.398;3.676;2023-12-29T09:00:44;15.57;;;11.75;;
78774;SDS011;68119;43.398;3.676;2023-12-29T09:03:15;17.90;;;11.45;;
78774;SDS011;68119;43.398;3.676;2023-12-29T09:05:46;15.45;;;12.02;;
78774;SDS011;68119;43.398;3.676;2023-12-29T09:08:15;15.80;;;11.85;;
78774;SDS011;68119;43.398;3.676;2023-12-29T09:10:41;16.55;;;12.55;;
78774;SDS011;68119;43.398;3.676;2023-12-29T09:13:10;17.50;;;11.75;;
78774;SDS011;68119;43.398;3.676;2023-12-29T09:18:33;18.95;;;12.57;;
78774;SDS011;68119;43.398;3.676;2023-12-29T09:21:13;17.02;;;11.80;;
78774;SDS011;68119;43.398;3.676;2023-12-29T09:23:40;16.60;;;12.35;;
78774;SDS011;68119;43.398;3.676;2023-12-29T09:26:23;16.00;;;11.25;;
78774;SDS011;68119;43.398;3.676;2023-12-29T09:28:52;17.17;;;11.05;;
78774;SDS011;68119;43.398;3.676;2023-12-29T09:31:20;18.48;;;12.77;;
78774;SDS011;68119;43.398;3.676;2023-12-29T09:34:00;16.95;;;11.50;;
78774;SDS011;68119;43.398;3.676;2023-12-29T09:36:32;18.67;;;11.07;;
78774;SDS011;68119;43.398;3.676;2023-12-29T09:39:05;14.50;;;11.07;;
78774;SDS011;68119;43.398;3.676;2023-12-29T09:41:31;14.32;;;10.15;;
78774;SDS011;68119;43.398;3.676;2023-12-29T09:44:11;17.45;;;11.05;;
78774;SDS011;68119;43.398;3.676;2023-12-29T09:47:04;15.68;;;10.13;;
78774;SDS011;68119;43.398;3.676;2023-12-29T09:49:41;13.20;;;9.43;;
78774;SDS011;68119;43.398;3.676;2023-12-29T09:52:21;11.93;;;9.15;;
78774;SDS011;68119;43.398;3.676;2023-12-29T09:57:40;15.93;;;10.18;;
78774;SDS011;68119;43.398;3.676;2023-12-29T10:00:10;12.23;;;9.85;;
78774;SDS011;68119;43.398;3.676;2023-12-29T10:02:54;13.30;;;9.48;;
78774;SDS011;68119;43.398;3.676;2023-12-29T10:05:31;15.85;;;9.60;;
78774;SDS011;68119;43.398;3.676;2023-12-29T10:07:58;12.75;;;9.25;;
78774;SDS011;68119;43.398;3.676;2023-12-29T10:10:26;12.88;;;9.43;;
78774;SDS011;68119;43.398;3.676;2023-12-29T10:13:02;17.10;;;9.68;;
78774;SDS011;68119;43.398;3.676;2023-12-29T10:18:26;11.50;;;8.88;;
78774;SDS011;68119;43.398;3.676;2023-12-29T10:26:10;15.05;;;10.10;;
78774;SDS011;68119;43.398;3.676;2023-12-29T10:28:36;15.02;;;9.50;;
78774;SDS011;68119;43.398;3.676;2023-12-29T10:31:22;12.20;;;9.63;;
78774;SDS011;68119;43.398;3.676;2023-12-29T10:33:53;24.60;;;11.10;;
78774;SDS011;68119;43.398;3.676;2023-12-29T10:36:51;14.88;;;9.88;;
78774;SDS011;68119;43.398;3.676;2023-12-29T10:39:25;13.75;;;9.85;;
78774;SDS011;68119;43.398;3.676;2023-12-29T10:42:07;16.25;;;9.88;;
78774;SDS011;68119;43.398;3.676;2023-12-29T10:44:35;12.75;;;9.88;;
78774;SDS011;68119;43.398;3.676;2023-12-29T10:47:09;14.70;;;9.93;;
78774;SDS011;68119;43.398;3.676;2023-12-29T10:49:43;14.13;;;10.20;;
78774;SDS011;68119;43.398;3.676;2023-12-29T10:52:18;14.77;;;9.80;;
78774;SDS011;68119;43.398;3.676;2023-12-29T10:55:10;16.17;;;10.65;;
78774;SDS011;68119;43.398;3.676;2023-12-29T10:57:37;14.05;;;10.55;;
78774;SDS011;68119;43.398;3.676;2023-12-29T11:00:04;17.70;;;12.23;;
78774;SDS011;68119;43.398;3.676;2023-12-29T11:02:31;16.80;;;11.80;;
78774;SDS011;68119;43.398;3.676;2023-12-29T11:05:02;16.40;;;11.50;;
78774;SDS011;68119;43.398;3.676;2023-12-29T11:07:35;18.08;;;11.50;;
78774;SDS011;68119;43.398;3.676;2023-12-29T11:10:02;20.75;;;11.45;;
78774;SDS011;68119;43.398;3.676;2023-12-29T11:12:46;15.60;;;10.77;;
78774;SDS011;68119;43.398;3.676;2023-12-29T11:15:27;19.10;;;11.25;;
78774;SDS011;68119;43.398;3.676;2023-12-29T11:17:56;13.93;;;10.18;;
78774;SDS011;68119;43.398;3.676;2023-12-29T11:20:36;15.77;;;9.98;;
78774;SDS011;68119;43.398;3.676;2023-12-29T11:23:23;17.27;;;11.93;;
78774;SDS011;68119;43.398;3.676;2023-12-29T11:29:43;26.98;;;14.77;;
78774;SDS011;68119;43.398;3.676;2023-12-29T11:32:30;27.85;;;15.73;;
78774;SDS011;68119;43.398;3.676;2023-12-29T11:57:19;15.70;;;11.27;;
78774;SDS011;68119;43.398;3.676;2023-12-29T12:00:12;21.08;;;10.75;;
78774;SDS011;68119;43.398;3.676;2023-12-29T12:02:39;15.93;;;10.40;;
78774;SDS011;68119;43.398;3.676;2023-12-29T12:05:09;15.05;;;10.40;;
78774;SDS011;68119;43.398;3.676;2023-12-29T12:10:39;16.67;;;11.00;;
78774;SDS011;68119;43.398;3.676;2023-12-29T12:13:56;19.25;;;10.88;;
78774;SDS011;68119;43.398;3.676;2023-12-29T12:18:56;16.92;;;11.02;;
78774;SDS011;68119;43.398;3.676;2023-12-29T12:21:26;14.95;;;10.43;;
78774;SDS011;68119;43.398;3.676;2023-12-29T12:24:07;17.60;;;11.40;;
78774;SDS011;68119;43.398;3.676;2023-12-29T12:29:43;16.20;;;11.10;;
78774;SDS011;68119;43.398;3.676;2023-12-29T12:35:13;15.60;;;10.70;;
78774;SDS011;68119;43.398;3.676;2023-12-29T12:37:43;15.32;;;10.48;;
78774;SDS011;68119;43.398;3.676;2023-12-29T12:40:24;12.73;;;9.43;;
78774;SDS011;68119;43.398;3.676;2023-12-29T12:43:33;14.63;;;10.17;;
78774;SDS011;68119;43.398;3.676;2023-12-29T12:46:20;14.60;;;9.90;;
78774;SDS011;68119;43.398;3.676;2023-12-29T12:49:00;15.07;;;9.63;;
78774;SDS011;68119;43.398;3.676;2023-12-29T13:00:42;16.83;;;11.50;;
78774;SDS011;68119;43.398;3.676;2023-12-29T13:16:08;23.70;;;12.43;;
78774;SDS011;68119;43.398;3.676;2023-12-29T13:19:05;18.30;;;11.98;;
78774;SDS011;68119;43.398;3.676;2023-12-29T13:25:18;19.65;;;11.52;;
78774;SDS011;68119;43.398;3.676;2023-12-29T13:31:14;15.48;;;10.68;;
78774;SDS011;68119;43.398;3.676;2023-12-29T13:34:06;14.20;;;10.40;;
78774;SDS011;68119;43.398;3.676;2023-12-29T15:20:44;17.52;;;12.30;;
78774;SDS011;68119;43.398;3.676;2023-12-29T16:12:37;16.67;;;10.88;;
78774;SDS011;68119;43.398;3.676;2023-12-29T16:20:53;16.30;;;10.85;;
78774;SDS011;68119;43.398;3.676;2023-12-29T16:23:22;14.75;;;10.38;;
78774;SDS011;68119;43.398;3.676;2023-12-29T16:28:37;16.73;;;10.75;;
78774;SDS011;68119;43.398;3.676;2023-12-29T16:31:06;15.77;;;10.90;;
78774;SDS011;68119;43.398;3.676;2023-12-29T16:33:43;19.17;;;11.90;;
78774;SDS011;68119;43.398;3.676;2023-12-29T16:36:18;16.85;;;11.15;;
78774;SDS011;68119;43.398;3.676;2023-12-29T16:38:48;17.55;;;11.48;;
78774;SDS011;68119;43.398;3.676;2023-12-29T16:41:17;16.80;;;11.70;;
78774;SDS011;68119;43.398;3.676;2023-12-29T16:43:54;18.60;;;11.93;;
78774;SDS011;68119;43.398;3.676;2023-12-29T16:46:43;17.83;;;11.95;;
78774;SDS011;68119;43.398;3.676;2023-12-29T16:49:45;19.08;;;12.27;;
78774;SDS011;68119;43.398;3.676;2023-12-29T16:52:15;21.17;;;13.02;;
78774;SDS011;68119;43.398;3.676;2023-12-29T16:54:45;16.70;;;11.98;;
78774;SDS011;68119;43.398;3.676;2023-12-29T16:59:39;19.05;;;13.00;;
78774;SDS011;68119;43.398;3.676;2023-12-29T17:02:06;18.35;;;14.20;;
78774;SDS011;68119;43.398;3.676;2023-12-29T17:04:36;20.85;;;14.60;;
78774;SDS011;68119;43.398;3.676;2023-12-29T17:07:02;37.65;;;19.20;;
78774;SDS011;68119;43.398;3.676;2023-12-29T17:09:49;27.92;;;18.48;;
78774;SDS011;68119;43.398;3.676;2023-12-29T17:12:15;32.10;;;20.17;;
78774;SDS011;68119;43.398;3.676;2023-12-29T17:14:54;41.35;;;21.92;;
78774;SDS011;68119;43.398;3.676;2023-12-29T17:17:20;44.65;;;24.85;;
78774;SDS011;68119;43.398;3.676;2023-12-29T17:19:47;44.95;;;26.00;;
78774;SDS011;68119;43.398;3.676;2023-12-29T17:22:21;50.72;;;26.95;;
78774;SDS011;68119;43.398;3.676;2023-12-29T17:24:47;46.03;;;28.17;;
78774;SDS011;68119;43.398;3.676;2023-12-29T17:27:25;47.88;;;26.58;;
78774;SDS011;68119;43.398;3.676;2023-12-29T17:29:52;43.92;;;26.15;;
78774;SDS011;68119;43.398;3.676;2023-12-29T17:32:18;41.90;;;24.23;;
78774;SDS011;68119;43.398;3.676;2023-12-29T17:37:34;33.05;;;20.83;;
78774;SDS011;68119;43.398;3.676;2023-12-29T17:40:00;32.80;;;18.73;;
78774;SDS011;68119;43.398;3.676;2023-12-29T17:42:37;35.80;;;20.05;;
78774;SDS011;68119;43.398;3.676;2023-12-29T17:45:06;30.08;;;18.73;;
78774;SDS011;68119;43.398;3.676;2023-12-29T17:47:41;29.70;;;18.40;;
78774;SDS011;68119;43.398;3.676;2023-12-29T17:50:09;33.67;;;19.10;;
78774;SDS011;68119;43.398;3.676;2023-12-29T17:52:42;28.23;;;19.05;;
78774;SDS011;68119;43.398;3.676;2023-12-29T17:55:08;27.83;;;18.77;;
78774;SDS011;68119;43.398;3.676;2023-12-29T17:57:37;29.80;;;18.98;;
78774;SDS011;68119;43.398;3.676;2023-12-29T18:00:06;27.38;;;18.38;;
78774;SDS011;68119;43.398;3.676;2023-12-29T18:02:36;28.45;;;19.05;;
78774;SDS011;68119;43.398;3.676;2023-12-29T18:05:06;30.25;;;20.05;;
78774;SDS011;68119;43.398;3.676;2023-12-29T18:07:34;31.75;;;20.45;;
78774;SDS011;68119;43.398;3.676;2023-12-29T18:10:01;30.73;;;21.00;;
78774;SDS011;68119;43.398;3.676;2023-12-29T18:12:30;29.67;;;20.48;;
78774;SDS011;68119;43.398;3.676;2023-12-29T18:14:57;27.90;;;21.05;;
78774;SDS011;68119;43.398;3.676;2023-12-29T18:17:31;30.20;;;20.33;;
78774;SDS011;68119;43.398;3.676;2023-12-29T18:20:02;29.42;;;21.20;;
78774;SDS011;68119;43.398;3.676;2023-12-29T18:22:31;27.83;;;20.77;;
78774;SDS011;68119;43.398;3.676;2023-12-29T18:25:01;31.02;;;22.02;;
78774;SDS011;68119;43.398;3.676;2023-12-29T18:27:27;32.75;;;23.35;;
78774;SDS011;68119;43.398;3.676;2023-12-29T18:29:57;35.65;;;25.52;;
78774;SDS011;68119;43.398;3.676;2023-12-29T18:32:25;38.88;;;27.63;;
78774;SDS011;68119;43.398;3.676;2023-12-29T18:34:57;38.58;;;28.48;;
78774;SDS011;68119;43.398;3.676;2023-12-29T18:37:33;38.72;;;28.77;;
78774;SDS011;68119;43.398;3.676;2023-12-29T18:39:59;36.45;;;28.08;;
78774;SDS011;68119;43.398;3.676;2023-12-29T18:42:26;38.70;;;27.52;;
78774;SDS011;68119;43.398;3.676;2023-12-29T18:45:01;37.95;;;27.80;;
78774;SDS011;68119;43.398;3.676;2023-12-29T18:47:27;35.10;;;26.73;;
78774;SDS011;68119;43.398;3.676;2023-12-29T18:49:53;39.90;;;28.42;;
78774;SDS011;68119;43.398;3.676;2023-12-29T18:52:20;40.05;;;27.80;;
78774;SDS011;68119;43.398;3.676;2023-12-29T18:54:50;40.25;;;28.42;;
78774;SDS011;68119;43.398;3.676;2023-12-29T18:57:25;36.38;;;27.42;;
78774;SDS011;68119;43.398;3.676;2023-12-29T18:59:54;36.63;;;26.73;;
78774;SDS011;68119;43.398;3.676;2023-12-29T19:02:26;33.90;;;25.67;;
78774;SDS011;68119;43.398;3.676;2023-12-29T19:04:52;34.38;;;26.02;;
78774;SDS011;68119;43.398;3.676;2023-12-29T19:07:28;33.88;;;26.50;;
78774;SDS011;68119;43.398;3.676;2023-12-29T19:09:59;37.08;;;26.58;;
78774;SDS011;68119;43.398;3.676;2023-12-29T19:12:29;36.22;;;26.80;;